sensor_id;sensor_type;location;lat;lon;timestamp;pressure;altitude;pressure_sealevel;temperature;humidity
52855;BME280;38719;51.418;7.286;2022-11-20T00:00:23;99462.66;;;1.84;63.21
52855;BME280;38719;51.418;7.286;2022-11-20T00:02:51;99452.81;;;1.97;62.52
52855;BME280;38719;51.418;7.286;2022-11-20T00:05:18;99450.03;;;2.06;62.15
52855;BME280;38719;51.418;7.286;2022-11-20T00:07:48;99447.44;;;2.03;62.53
52855;BME280;38719;51.418;7.286;2022-11-20T00:10:15;99448.22;;;2.09;62.71
52855;BME280;38719;51.418;7.286;2022-11-20T00:12:43;99445.50;;;2.14;63.31
52855;BME280;38719;51.418;7.286;2022-11-20T00:15:10;99434.88;;;2.20;63.01
52855;BME280;38719;51.418;7.286;2022-11-20T00:17:38;99433.13;;;2.19;62.83
52855;BME280;38719;51.418;7.286;2022-11-20T00:20:06;99441.78;;;2.24;63.45
52855;BME280;38719;51.418;7.286;2022-11-20T00:22:34;99438.34;;;2.21;63.66
52855;BME280;38719;51.418;7.286;2022-11-20T00:25:03;99429.47;;;2.28;63.95
52855;BME280;38719;51.418;7.286;2022-11-20T00:27:30;99433.72;;;2.35;64.33
52855;BME280;38719;51.418;7.286;2022-11-20T00:29:58;99438.03;;;2.36;64.84
52855;BME280;38719;51.418;7.286;2022-11-20T00:32:25;99436.22;;;2.41;64.89
52855;BME280;38719;51.418;7.286;2022-11-20T00:34:53;99434.47;;;2.40;64.93
52855;BME280;38719;51.418;7.286;2022-11-20T00:37:20;99435.84;;;2.58;64.62
52855;BME280;38719;51.418;7.286;2022-11-20T00:39:48;99428.56;;;2.73;64.21
52855;BME280;38719;51.418;7.286;2022-11-20T00:42:16;99439.03;;;2.76;63.53
52855;BME280;38719;51.418;7.286;2022-11-20T00:44:44;99448.75;;;2.71;64.27
52855;BME280;38719;51.418;7.286;2022-11-20T00:47:11;99448.72;;;2.72;64.87
52855;BME280;38719;51.418;7.286;2022-11-20T00:49:39;99448.56;;;2.80;63.41
52855;BME280;38719;51.418;7.286;2022-11-20T00:52:06;99449.47;;;2.79;64.08
52855;BME280;38719;51.418;7.286;2022-11-20T00:54:34;99439.69;;;2.84;63.70
52855;BME280;38719;51.418;7.286;2022-11-20T00:57:01;99445.66;;;2.93;64.08
52855;BME280;38719;51.418;7.286;2022-11-20T00:59:30;99445.44;;;3.03;63.59
52855;BME280;38719;51.418;7.286;2022-11-20T01:01:57;99446.28;;;3.04;63.25
52855;BME280;38719;51.418;7.286;2022-11-20T01:04:25;99446.47;;;2.96;62.80
52855;BME280;38719;51.418;7.286;2022-11-20T01:06:52;99457.72;;;3.03;62.84
52855;BME280;38719;51.418;7.286;2022-11-20T01:09:20;99449.06;;;2.98;63.34
52855;BME280;38719;51.418;7.286;2022-11-20T01:11:48;99449.72;;;3.08;63.76
52855;BME280;38719;51.418;7.286;2022-11-20T01:14:18;99441.78;;;3.09;64.08
52855;BME280;38719;51.418;7.286;2022-11-20T01:16:49;99428.47;;;3.17;63.66
52855;BME280;38719;51.418;7.286;2022-11-20T01:19:18;99437.97;;;3.22;64.39
52855;BME280;38719;51.418;7.286;2022-11-20T01:21:50;99434.22;;;3.33;64.39
52855;BME280;38719;51.418;7.286;2022-11-20T01:24:20;99431.72;;;3.27;63.94
52855;BME280;38719;51.418;7.286;2022-11-20T01:26:49;99436.69;;;3.41;64.41
52855;BME280;38719;51.418;7.286;2022-11-20T01:29:19;99421.00;;;3.36;64.22
52855;BME280;38719;51.418;7.286;2022-11-20T01:31:49;99417.72;;;3.26;66.05
52855;BME280;38719;51.418;7.286;2022-11-20T01:34:18;99418.31;;;3.37;65.70
52855;BME280;38719;51.418;7.286;2022-11-20T01:36:46;99410.38;;;3.39;65.25
52855;BME280;38719;51.418;7.286;2022-11-20T01:39:16;99416.34;;;3.47;66.22
52855;BME280;38719;51.418;7.286;2022-11-20T01:41:45;99412.72;;;3.51;65.55
52855;BME280;38719;51.418;7.286;2022-11-20T01:44:47;99408.50;;;3.46;67.14
52855;BME280;38719;51.418;7.286;2022-11-20T01:47:21;99396.78;;;3.58;66.55
52855;BME280;38719;51.418;7.286;2022-11-20T01:49:52;99395.59;;;3.69;65.59
52855;BME280;38719;51.418;7.286;2022-11-20T01:52:25;99396.13;;;3.82;64.56
52855;BME280;38719;51.418;7.286;2022-11-20T01:54:56;99388.13;;;3.87;64.62
52855;BME280;38719;51.418;7.286;2022-11-20T01:57:27;99397.03;;;3.83;64.63
52855;BME280;38719;51.418;7.286;2022-11-20T02:00:00;99394.34;;;3.84;65.00
52855;BME280;38719;51.418;7.286;2022-11-20T02:02:30;99392.38;;;3.93;65.14
52855;BME280;38719;51.418;7.286;2022-11-20T02:05:02;99389.69;;;3.94;65.24
52855;BME280;38719;51.418;7.286;2022-11-20T02:07:31;99396.06;;;3.85;65.07
52855;BME280;38719;51.418;7.286;2022-11-20T02:09:59;99396.06;;;3.85;66.45
52855;BME280;38719;51.418;7.286;2022-11-20T02:12:27;99399.56;;;3.86;65.86
52855;BME280;38719;51.418;7.286;2022-11-20T02:15:12;99402.84;;;3.94;65.97
52855;BME280;38719;51.418;7.286;2022-11-20T02:17:41;99400.09;;;3.99;65.38
52855;BME280;38719;51.418;7.286;2022-11-20T02:20:09;99392.44;;;3.90;65.80
52855;BME280;38719;51.418;7.286;2022-11-20T02:22:42;99392.28;;;3.96;66.39
52855;BME280;38719;51.418;7.286;2022-11-20T02:25:17;99390.31;;;4.04;66.04
52855;BME280;38719;51.418;7.286;2022-11-20T02:27:46;99391.94;;;4.08;66.26
52855;BME280;38719;51.418;7.286;2022-11-20T02:30:13;99381.28;;;4.13;64.94
52855;BME280;38719;51.418;7.286;2022-11-20T02:32:41;99380.31;;;4.15;65.95
52855;BME280;38719;51.418;7.286;2022-11-20T02:35:35;99373.25;;;4.17;65.31
52855;BME280;38719;51.418;7.286;2022-11-20T02:37:59;99383.78;;;4.17;65.81
52855;BME280;38719;51.418;7.286;2022-11-20T02:40:29;99386.38;;;4.19;65.64
52855;BME280;38719;51.418;7.286;2022-11-20T02:42:57;99380.31;;;4.15;64.99
52855;BME280;38719;51.418;7.286;2022-11-20T02:45:25;99376.13;;;4.08;65.87
52855;BME280;38719;51.418;7.286;2022-11-20T02:47:53;99369.00;;;4.13;65.42
52855;BME280;38719;51.418;7.286;2022-11-20T02:50:20;99375.19;;;4.11;65.93
52855;BME280;38719;51.418;7.286;2022-11-20T02:52:48;99378.66;;;4.13;65.82
52855;BME280;38719;51.418;7.286;2022-11-20T02:55:15;99370.44;;;4.24;65.87
52855;BME280;38719;51.418;7.286;2022-11-20T02:57:44;99368.75;;;4.21;65.79
52855;BME280;38719;51.418;7.286;2022-11-20T03:00:12;99360.69;;;4.27;66.39
52855;BME280;38719;51.418;7.286;2022-11-20T03:02:40;99360.50;;;4.33;65.63
52855;BME280;38719;51.418;7.286;2022-11-20T03:05:07;99361.31;;;4.35;66.25
52855;BME280;38719;51.418;7.286;2022-11-20T03:07:35;99352.53;;;4.35;66.00
52855;BME280;38719;51.418;7.286;2022-11-20T03:10:03;99360.44;;;4.35;66.68
52855;BME280;38719;51.418;7.286;2022-11-20T03:12:31;99363.19;;;4.32;66.60
52855;BME280;38719;51.418;7.286;2022-11-20T03:15:00;99360.72;;;4.26;66.11
52855;BME280;38719;51.418;7.286;2022-11-20T03:17:27;99357.25;;;4.24;66.21
52855;BME280;38719;51.418;7.286;2022-11-20T03:19:55;99355.09;;;4.38;66.17
52855;BME280;38719;51.418;7.286;2022-11-20T03:22:23;99356.69;;;4.44;66.38
52855;BME280;38719;51.418;7.286;2022-11-20T03:24:50;99361.19;;;4.40;66.07
52855;BME280;38719;51.418;7.286;2022-11-20T03:27:18;99357.75;;;4.38;65.91
52855;BME280;38719;51.418;7.286;2022-11-20T03:29:45;99356.22;;;4.29;66.63
52855;BME280;38719;51.418;7.286;2022-11-20T03:32:14;99352.38;;;4.41;66.16
52855;BME280;38719;51.418;7.286;2022-11-20T03:34:41;99356.63;;;4.45;65.00
52855;BME280;38719;51.418;7.286;2022-11-20T03:37:09;99353.50;;;4.32;65.52
52855;BME280;38719;51.418;7.286;2022-11-20T03:39:36;99350.25;;;4.23;65.27
52855;BME280;38719;51.418;7.286;2022-11-20T03:42:04;99349.91;;;4.35;65.90
52855;BME280;38719;51.418;7.286;2022-11-20T03:44:51;99353.41;;;4.35;65.44
52855;BME280;38719;51.418;7.286;2022-11-20T03:47:20;99346.91;;;4.47;66.10
52855;BME280;38719;51.418;7.286;2022-11-20T03:49:48;99339.81;;;4.49;66.10
52855;BME280;38719;51.418;7.286;2022-11-20T03:52:15;99340.44;;;4.58;65.70
52855;BME280;38719;51.418;7.286;2022-11-20T03:54:43;99334.19;;;4.62;65.35
52855;BME280;38719;51.418;7.286;2022-11-20T03:57:10;99352.00;;;4.54;65.46
52855;BME280;38719;51.418;7.286;2022-11-20T03:59:38;99342.53;;;4.46;65.29
52855;BME280;38719;51.418;7.286;2022-11-20T04:02:05;99347.03;;;4.44;66.23
52855;BME280;38719;51.418;7.286;2022-11-20T04:04:34;99343.44;;;4.45;66.13
52855;BME280;38719;51.418;7.286;2022-11-20T04:07:02;99331.81;;;4.52;65.48
52855;BME280;38719;51.418;7.286;2022-11-20T04:09:29;99331.88;;;4.51;65.93
52855;BME280;38719;51.418;7.286;2022-11-20T04:11:57;99328.44;;;4.47;66.21
52855;BME280;38719;51.418;7.286;2022-11-20T04:14:24;99338.56;;;4.61;65.30
52855;BME280;38719;51.418;7.286;2022-11-20T04:16:52;99337.72;;;4.61;65.68
52855;BME280;38719;51.418;7.286;2022-11-20T04:19:19;99336.13;;;4.55;65.57
52855;BME280;38719;51.418;7.286;2022-11-20T04:21:49;99332.63;;;4.55;65.70
52855;BME280;38719;51.418;7.286;2022-11-20T04:24:16;99337.91;;;4.55;65.61
52855;BME280;38719;51.418;7.286;2022-11-20T04:26:43;99327.25;;;4.58;65.54
52855;BME280;38719;51.418;7.286;2022-11-20T04:29:11;99335.09;;;4.61;65.33
52855;BME280;38719;51.418;7.286;2022-11-20T04:31:39;99333.88;;;4.71;65.71
52855;BME280;38719;51.418;7.286;2022-11-20T04:34:06;99341.72;;;4.74;65.16
52855;BME280;38719;51.418;7.286;2022-11-20T04:36:34;99334.00;;;4.66;65.31
52855;BME280;38719;51.418;7.286;2022-11-20T04:39:05;99334.13;;;4.63;66.07
52855;BME280;38719;51.418;7.286;2022-11-20T04:41:34;99341.09;;;4.66;66.09
52855;BME280;38719;51.418;7.286;2022-11-20T04:44:05;99340.06;;;4.70;65.18
52855;BME280;38719;51.418;7.286;2022-11-20T04:46:35;99334.84;;;4.68;65.53
52855;BME280;38719;51.418;7.286;2022-11-20T04:49:03;99337.59;;;4.65;65.69
52855;BME280;38719;51.418;7.286;2022-11-20T04:51:31;99326.34;;;4.59;65.84
52855;BME280;38719;51.418;7.286;2022-11-20T04:53:58;99333.88;;;4.71;65.13
52855;BME280;38719;51.418;7.286;2022-11-20T04:56:27;99333.28;;;4.63;65.21
52855;BME280;38719;51.418;7.286;2022-11-20T04:58:55;99330.59;;;4.64;65.09
52855;BME280;38719;51.418;7.286;2022-11-20T05:01:23;99329.88;;;4.59;64.83
52855;BME280;38719;51.418;7.286;2022-11-20T05:03:51;99329.88;;;4.59;65.07
52855;BME280;38719;51.418;7.286;2022-11-20T05:06:20;99327.44;;;4.51;65.31
52855;BME280;38719;51.418;7.286;2022-11-20T05:08:48;99334.38;;;4.56;64.89
52855;BME280;38719;51.418;7.286;2022-11-20T05:11:18;99337.22;;;4.48;64.77
52855;BME280;38719;51.418;7.286;2022-11-20T05:13:47;99338.00;;;4.51;65.01
52855;BME280;38719;51.418;7.286;2022-11-20T05:16:17;99343.56;;;4.42;64.86
52855;BME280;38719;51.418;7.286;2022-11-20T05:18:45;99339.09;;;4.44;65.08
52855;BME280;38719;51.418;7.286;2022-11-20T05:21:13;99341.75;;;4.44;65.09
52855;BME280;38719;51.418;7.286;2022-11-20T05:23:42;99337.38;;;4.43;65.38
52855;BME280;38719;51.418;7.286;2022-11-20T05:26:13;99346.91;;;4.47;64.94
52855;BME280;38719;51.418;7.286;2022-11-20T05:28:41;99345.88;;;4.53;65.10
52855;BME280;38719;51.418;7.286;2022-11-20T05:31:12;99341.19;;;4.63;64.57
52855;BME280;38719;51.418;7.286;2022-11-20T05:33:40;99337.72;;;4.61;63.79
52855;BME280;38719;51.418;7.286;2022-11-20T05:36:09;99342.00;;;4.65;64.89
52855;BME280;38719;51.418;7.286;2022-11-20T05:38:37;99339.53;;;4.59;65.10
52855;BME280;38719;51.418;7.286;2022-11-20T05:41:05;99337.72;;;4.61;64.78
52855;BME280;38719;51.418;7.286;2022-11-20T05:43:33;99341.94;;;4.66;64.00
52855;BME280;38719;51.418;7.286;2022-11-20T05:46:01;99341.09;;;4.66;64.85
52855;BME280;38719;51.418;7.286;2022-11-20T05:48:31;99336.44;;;4.74;64.04
52855;BME280;38719;51.418;7.286;2022-11-20T05:50:59;99336.63;;;4.68;64.64
52855;BME280;38719;51.418;7.286;2022-11-20T05:53:27;99334.00;;;4.68;64.66
52855;BME280;38719;51.418;7.286;2022-11-20T05:55:58;99341.84;;;4.70;64.07
52855;BME280;38719;51.418;7.286;2022-11-20T05:58:26;99334.78;;;4.70;63.85
52855;BME280;38719;51.418;7.286;2022-11-20T06:00:54;99333.94;;;4.70;63.61
52855;BME280;38719;51.418;7.286;2022-11-20T06:03:22;99334.56;;;4.49;64.84
52855;BME280;38719;51.418;7.286;2022-11-20T06:05:51;99323.22;;;4.46;64.82
52855;BME280;38719;51.418;7.286;2022-11-20T06:08:18;99325.38;;;4.61;64.21
52855;BME280;38719;51.418;7.286;2022-11-20T06:10:46;99325.44;;;4.60;63.66
52855;BME280;38719;51.418;7.286;2022-11-20T06:13:13;99332.63;;;4.55;63.64
52855;BME280;38719;51.418;7.286;2022-11-20T06:15:41;99327.22;;;4.59;63.57
52855;BME280;38719;51.418;7.286;2022-11-20T06:18:08;99320.22;;;4.58;63.60
52855;BME280;38719;51.418;7.286;2022-11-20T06:20:36;99329.69;;;4.64;62.27
52855;BME280;38719;51.418;7.286;2022-11-20T06:23:08;99328.13;;;4.58;62.71
52855;BME280;38719;51.418;7.286;2022-11-20T06:25:37;99334.22;;;4.60;63.54
52855;BME280;38719;51.418;7.286;2022-11-20T06:28:05;99327.94;;;4.64;62.67
52855;BME280;38719;51.418;7.286;2022-11-20T06:30:32;99329.69;;;4.64;62.52
52855;BME280;38719;51.418;7.286;2022-11-20T06:33:00;99334.22;;;4.60;62.44
52855;BME280;38719;51.418;7.286;2022-11-20T06:35:27;99334.19;;;4.62;62.00
52855;BME280;38719;51.418;7.286;2022-11-20T06:37:55;99341.19;;;4.63;62.19
52855;BME280;38719;51.418;7.286;2022-11-20T06:40:24;99340.69;;;4.50;62.34
52855;BME280;38719;51.418;7.286;2022-11-20T06:42:53;99336.38;;;4.47;62.47
52855;BME280;38719;51.418;7.286;2022-11-20T06:45:21;99341.41;;;4.25;63.22
52855;BME280;38719;51.418;7.286;2022-11-20T06:47:48;99348.47;;;4.23;63.43
52855;BME280;38719;51.418;7.286;2022-11-20T06:50:16;99345.78;;;4.26;63.46
52855;BME280;38719;51.418;7.286;2022-11-20T06:52:43;99342.53;;;4.16;62.73
52855;BME280;38719;51.418;7.286;2022-11-20T06:55:10;99346.06;;;4.15;62.54
52855;BME280;38719;51.418;7.286;2022-11-20T06:57:39;99355.94;;;4.09;61.70
52855;BME280;38719;51.418;7.286;2022-11-20T07:00:08;99348.81;;;4.11;61.32
52855;BME280;38719;51.418;7.286;2022-11-20T07:02:35;99340.72;;;4.18;61.56
52855;BME280;38719;51.418;7.286;2022-11-20T07:05:03;99345.47;;;4.06;61.74
52855;BME280;38719;51.418;7.286;2022-11-20T07:07:31;99341.25;;;3.98;61.30
52855;BME280;38719;51.418;7.286;2022-11-20T07:09:58;99335.66;;;3.79;61.92
52855;BME280;38719;51.418;7.286;2022-11-20T07:12:26;99339.75;;;3.90;62.68
52855;BME280;38719;51.418;7.286;2022-11-20T07:14:55;99343.28;;;3.90;61.73
52855;BME280;38719;51.418;7.286;2022-11-20T07:17:22;99348.72;;;3.82;61.59
52855;BME280;38719;51.418;7.286;2022-11-20T07:19:50;99354.91;;;3.81;61.99
52855;BME280;38719;51.418;7.286;2022-11-20T07:22:17;99356.16;;;3.68;61.54
52855;BME280;38719;51.418;7.286;2022-11-20T07:24:47;99354.56;;;3.61;62.15
52855;BME280;38719;51.418;7.286;2022-11-20T07:27:15;99356.41;;;3.57;62.71
52855;BME280;38719;51.418;7.286;2022-11-20T07:29:43;99358.22;;;3.55;62.92
52855;BME280;38719;51.418;7.286;2022-11-20T07:32:11;99361.69;;;3.57;62.29
52855;BME280;38719;51.418;7.286;2022-11-20T07:34:39;99366.94;;;3.57;62.54
52855;BME280;38719;51.418;7.286;2022-11-20T07:37:06;99365.25;;;3.54;62.61
52855;BME280;38719;51.418;7.286;2022-11-20T07:39:35;99364.38;;;3.55;62.89
52855;BME280;38719;51.418;7.286;2022-11-20T07:42:03;99359.69;;;3.67;62.70
52855;BME280;38719;51.418;7.286;2022-11-20T07:44:31;99375.94;;;3.83;62.44
52855;BME280;38719;51.418;7.286;2022-11-20T07:46:58;99369.09;;;3.76;62.13
52855;BME280;38719;51.418;7.286;2022-11-20T07:49:27;99363.72;;;3.80;62.36
52855;BME280;38719;51.418;7.286;2022-11-20T07:51:55;99366.34;;;3.80;62.53
52855;BME280;38719;51.418;7.286;2022-11-20T07:54:29;99362.69;;;3.86;61.59
52855;BME280;38719;51.418;7.286;2022-11-20T07:56:57;99363.56;;;3.86;62.06
52855;BME280;38719;51.418;7.286;2022-11-20T07:59:24;99365.91;;;3.97;62.16
52855;BME280;38719;51.418;7.286;2022-11-20T08:01:51;99368.81;;;3.86;62.16
52855;BME280;38719;51.418;7.286;2022-11-20T08:04:19;99368.53;;;3.97;61.55
52855;BME280;38719;51.418;7.286;2022-11-20T08:06:48;99372.75;;;4.03;61.62
52855;BME280;38719;51.418;7.286;2022-11-20T08:09:15;99360.31;;;4.10;60.96
52855;BME280;38719;51.418;7.286;2022-11-20T08:11:43;99366.03;;;4.24;61.38
52855;BME280;38719;51.418;7.286;2022-11-20T08:14:28;99359.06;;;4.22;61.28
52855;BME280;38719;51.418;7.286;2022-11-20T08:16:55;99365.25;;;4.20;61.62
52855;BME280;38719;51.418;7.286;2022-11-20T08:19:23;99359.97;;;4.22;61.60
52855;BME280;38719;51.418;7.286;2022-11-20T08:21:52;99356.97;;;4.34;61.23
52855;BME280;38719;51.418;7.286;2022-11-20T08:24:19;99354.69;;;4.20;62.30
52855;BME280;38719;51.418;7.286;2022-11-20T08:26:47;99353.03;;;4.18;61.98
52855;BME280;38719;51.418;7.286;2022-11-20T08:29:14;99349.19;;;4.30;61.65
52855;BME280;38719;51.418;7.286;2022-11-20T08:31:42;99352.38;;;4.41;62.17
52855;BME280;38719;51.418;7.286;2022-11-20T08:34:09;99344.50;;;4.40;61.70
52855;BME280;38719;51.418;7.286;2022-11-20T08:36:44;99347.88;;;4.45;61.56
52855;BME280;38719;51.418;7.286;2022-11-20T08:39:13;99354.88;;;4.46;61.63
52855;BME280;38719;51.418;7.286;2022-11-20T08:41:40;99346.97;;;4.46;62.18
52855;BME280;38719;51.418;7.286;2022-11-20T08:44:08;99345.13;;;4.48;62.06
52855;BME280;38719;51.418;7.286;2022-11-20T08:46:37;99348.41;;;4.56;62.05
52855;BME280;38719;51.418;7.286;2022-11-20T08:49:06;99348.16;;;4.64;61.69
52855;BME280;38719;51.418;7.286;2022-11-20T08:51:35;99341.00;;;4.69;60.68
52855;BME280;38719;51.418;7.286;2022-11-20T08:54:03;99347.72;;;4.79;59.90
52855;BME280;38719;51.418;7.286;2022-11-20T08:56:33;99344.34;;;4.74;59.14
52855;BME280;38719;51.418;7.286;2022-11-20T08:59:01;99346.94;;;4.76;58.71
52855;BME280;38719;51.418;7.286;2022-11-20T09:01:48;99345.72;;;4.86;59.20
52855;BME280;38719;51.418;7.286;2022-11-20T09:04:16;99352.41;;;4.98;58.38
52855;BME280;38719;51.418;7.286;2022-11-20T09:06:43;99354.81;;;5.06;57.80
52855;BME280;38719;51.418;7.286;2022-11-20T09:09:11;99356.22;;;5.16;57.82
52855;BME280;38719;51.418;7.286;2022-11-20T09:11:39;99357.94;;;5.17;57.63
52855;BME280;38719;51.418;7.286;2022-11-20T09:14:07;99356.84;;;5.24;57.12
52855;BME280;38719;51.418;7.286;2022-11-20T09:16:35;99349.63;;;5.29;57.30
52855;BME280;38719;51.418;7.286;2022-11-20T09:19:02;99349.53;;;5.32;57.12
52855;BME280;38719;51.418;7.286;2022-11-20T09:21:50;99346.78;;;5.36;57.38
52855;BME280;38719;51.418;7.286;2022-11-20T09:24:24;99347.59;;;5.38;56.84
52855;BME280;38719;51.418;7.286;2022-11-20T09:26:53;99347.25;;;5.48;57.16
52855;BME280;38719;51.418;7.286;2022-11-20T09:29:21;99346.94;;;5.58;56.64
52855;BME280;38719;51.418;7.286;2022-11-20T09:31:49;99348.66;;;5.59;56.44
52855;BME280;38719;51.418;7.286;2022-11-20T09:34:16;99346.00;;;5.59;56.83
52855;BME280;38719;51.418;7.286;2022-11-20T09:36:44;99338.00;;;5.62;57.26
52855;BME280;38719;51.418;7.286;2022-11-20T09:39:11;99330.72;;;5.69;57.21
52855;BME280;38719;51.418;7.286;2022-11-20T09:41:51;99336.41;;;5.81;56.96
52855;BME280;38719;51.418;7.286;2022-11-20T09:44:36;99328.28;;;5.88;57.13
52855;BME280;38719;51.418;7.286;2022-11-20T09:47:08;99329.00;;;5.93;57.03
52855;BME280;38719;51.418;7.286;2022-11-20T09:49:58;99319.50;;;5.87;57.69
52855;BME280;38719;51.418;7.286;2022-11-20T09:52:35;99322.56;;;5.75;58.28
52855;BME280;38719;51.418;7.286;2022-11-20T09:55:06;99321.06;;;5.93;58.38
52855;BME280;38719;51.418;7.286;2022-11-20T09:57:38;99314.63;;;6.02;57.94
52855;BME280;38719;51.418;7.286;2022-11-20T10:00:12;99314.25;;;6.11;58.03
52855;BME280;38719;51.418;7.286;2022-11-20T10:02:44;99314.69;;;6.24;57.65
52855;BME280;38719;51.418;7.286;2022-11-20T10:05:18;99303.97;;;6.27;58.27
52855;BME280;38719;51.418;7.286;2022-11-20T10:07:48;99309.69;;;6.40;57.99
52855;BME280;38719;51.418;7.286;2022-11-20T10:10:29;99305.91;;;6.45;57.84
52855;BME280;38719;51.418;7.286;2022-11-20T10:13:12;99304.16;;;6.46;57.86
52855;BME280;38719;51.418;7.286;2022-11-20T10:15:55;99311.28;;;6.44;57.54
52855;BME280;38719;51.418;7.286;2022-11-20T10:18:35;99314.97;;;6.40;56.65
52855;BME280;38719;51.418;7.286;2022-11-20T10:21:11;99316.63;;;6.42;57.37
52855;BME280;38719;51.418;7.286;2022-11-20T10:23:52;99293.69;;;6.43;58.00
52855;BME280;38719;51.418;7.286;2022-11-20T10:26:31;99287.91;;;6.55;58.18
52855;BME280;38719;51.418;7.286;2022-11-20T10:29:09;99293.38;;;6.51;57.86
52855;BME280;38719;51.418;7.286;2022-11-20T10:31:40;99285.34;;;6.54;58.67
52855;BME280;38719;51.418;7.286;2022-11-20T10:34:18;99287.34;;;6.69;58.31
52855;BME280;38719;51.418;7.286;2022-11-20T10:36:53;99283.69;;;6.73;57.63
52855;BME280;38719;51.418;7.286;2022-11-20T10:39:28;99278.94;;;6.82;56.71
52855;BME280;38719;51.418;7.286;2022-11-20T10:42:00;99284.38;;;6.78;57.18
52855;BME280;38719;51.418;7.286;2022-11-20T10:44:29;99281.16;;;6.70;57.12
52855;BME280;38719;51.418;7.286;2022-11-20T10:47:23;99284.22;;;6.82;57.76
52855;BME280;38719;51.418;7.286;2022-11-20T10:49:55;99272.03;;;7.00;57.28
52855;BME280;38719;51.418;7.286;2022-11-20T10:52:30;99264.84;;;7.03;56.80
52855;BME280;38719;51.418;7.286;2022-11-20T10:55:07;99268.84;;;6.91;56.90
52855;BME280;38719;51.418;7.286;2022-11-20T10:57:52;99265.75;;;6.80;56.86
52855;BME280;38719;51.418;7.286;2022-11-20T11:00:21;99261.94;;;6.87;57.20
52855;BME280;38719;51.418;7.286;2022-11-20T11:02:51;99262.25;;;7.02;56.11
52855;BME280;38719;51.418;7.286;2022-11-20T11:05:32;99265.09;;;6.97;56.84
52855;BME280;38719;51.418;7.286;2022-11-20T11:08:01;99257.25;;;6.94;56.63
52855;BME280;38719;51.418;7.286;2022-11-20T11:10:36;99260.38;;;7.04;56.36
52855;BME280;38719;51.418;7.286;2022-11-20T11:13:07;99246.03;;;7.09;56.39
52855;BME280;38719;51.418;7.286;2022-11-20T11:15:38;99242.06;;;7.20;56.41
52855;BME280;38719;51.418;7.286;2022-11-20T11:18:10;99243.16;;;7.36;55.41
52855;BME280;38719;51.418;7.286;2022-11-20T11:20:38;99239.97;;;7.28;54.39
52855;BME280;38719;51.418;7.286;2022-11-20T11:23:26;99236.13;;;7.35;54.99
52855;BME280;38719;51.418;7.286;2022-11-20T11:25:57;99242.16;;;7.39;54.90
52855;BME280;38719;51.418;7.286;2022-11-20T11:28:26;99228.97;;;7.37;54.63
52855;BME280;38719;51.418;7.286;2022-11-20T11:30:54;99229.22;;;7.31;54.47
52855;BME280;38719;51.418;7.286;2022-11-20T11:33:25;99219.44;;;7.33;54.03
52855;BME280;38719;51.418;7.286;2022-11-20T11:35:54;99218.38;;;7.37;53.86
52855;BME280;38719;51.418;7.286;2022-11-20T11:38:29;99215.78;;;7.36;54.29
52855;BME280;38719;51.418;7.286;2022-11-20T11:40:58;99213.22;;;7.34;54.36
52855;BME280;38719;51.418;7.286;2022-11-20T11:43:28;99204.19;;;7.38;54.31
52855;BME280;38719;51.418;7.286;2022-11-20T11:46:30;99202.22;;;7.23;54.42
52855;BME280;38719;51.418;7.286;2022-11-20T11:49:00;99204.06;;;7.21;54.76
52855;BME280;38719;51.418;7.286;2022-11-20T11:51:34;99208.09;;;7.30;54.57
52855;BME280;38719;51.418;7.286;2022-11-20T11:54:08;99190.31;;;7.33;54.64
52855;BME280;38719;51.418;7.286;2022-11-20T11:56:41;99189.19;;;7.39;54.01
52855;BME280;38719;51.418;7.286;2022-11-20T11:59:12;99183.34;;;7.51;54.21
52855;BME280;38719;51.418;7.286;2022-11-20T12:01:44;99174.88;;;7.43;54.81
52855;BME280;38719;51.418;7.286;2022-11-20T12:04:23;99177.44;;;7.45;54.95
52855;BME280;38719;51.418;7.286;2022-11-20T12:06:59;99176.66;;;7.42;54.96
52855;BME280;38719;51.418;7.286;2022-11-20T12:09:51;99169.03;;;7.35;54.48
52855;BME280;38719;51.418;7.286;2022-11-20T12:12:21;99162.34;;;7.47;55.35
52855;BME280;38719;51.418;7.286;2022-11-20T12:14:53;99170.69;;;7.37;55.25
52855;BME280;38719;51.418;7.286;2022-11-20T12:17:22;99160.34;;;7.31;54.82
52855;BME280;38719;51.418;7.286;2022-11-20T12:19:52;99159.91;;;7.42;55.38
52855;BME280;38719;51.418;7.286;2022-11-20T12:22:26;99152.53;;;7.49;54.93
52855;BME280;38719;51.418;7.286;2022-11-20T12:24:59;99149.03;;;7.48;55.00
52855;BME280;38719;51.418;7.286;2022-11-20T12:27:42;99144.63;;;7.28;55.54
52855;BME280;38719;51.418;7.286;2022-11-20T12:30:13;99152.31;;;7.14;55.86
52855;BME280;38719;51.418;7.286;2022-11-20T12:33:06;99143.38;;;7.16;55.59
52855;BME280;38719;51.418;7.286;2022-11-20T12:36:01;99134.16;;;7.25;56.47
52855;BME280;38719;51.418;7.286;2022-11-20T12:38:46;99130.56;;;7.26;55.72
52855;BME280;38719;51.418;7.286;2022-11-20T12:41:26;99136.56;;;7.10;55.81
52855;BME280;38719;51.418;7.286;2022-11-20T12:44:28;99124.25;;;7.09;56.27
52855;BME280;38719;51.418;7.286;2022-11-20T12:47:28;99139.69;;;7.00;56.55
52855;BME280;38719;51.418;7.286;2022-11-20T12:50:08;99136.88;;;7.03;56.37
52855;BME280;38719;51.418;7.286;2022-11-20T12:52:47;99126.91;;;7.09;56.31
52855;BME280;38719;51.418;7.286;2022-11-20T12:55:36;99117.16;;;7.10;56.52
52855;BME280;38719;51.418;7.286;2022-11-20T12:58:12;99119.41;;;7.19;56.57
52855;BME280;38719;51.418;7.286;2022-11-20T13:00:49;99109.94;;;7.14;56.71
52855;BME280;38719;51.418;7.286;2022-11-20T13:03:36;99111.00;;;7.09;56.58
52855;BME280;38719;51.418;7.286;2022-11-20T13:06:13;99116.31;;;7.09;56.70
52855;BME280;38719;51.418;7.286;2022-11-20T13:08:45;99104.84;;;7.09;57.29
52855;BME280;38719;51.418;7.286;2022-11-20T13:11:19;99096.97;;;7.07;57.14
52855;BME280;38719;51.418;7.286;2022-11-20T13:14:09;99081.28;;;7.03;58.08
52855;BME280;38719;51.418;7.286;2022-11-20T13:16:46;99076.78;;;7.05;57.47
52855;BME280;38719;51.418;7.286;2022-11-20T13:19:18;99071.66;;;7.02;57.58
52855;BME280;38719;51.418;7.286;2022-11-20T13:21:46;99071.41;;;7.06;57.12
52855;BME280;38719;51.418;7.286;2022-11-20T13:24:25;99054.13;;;6.99;58.13
52855;BME280;38719;51.418;7.286;2022-11-20T13:27:01;99058.34;;;7.03;57.08
52855;BME280;38719;51.418;7.286;2022-11-20T13:29:29;99048.47;;;7.07;58.00